Time;durP1;ratioP1;P1;durP2;ratioP2;P2;SDS_P1;SDS_P2;PMS_P1;PMS_P2;Temp;Humidity;BMP_temperature;BMP_pressure;BME280_temperature;BME280_humidity;BME280_pressure;Samples;Min_cycle;Max_cycle;Signal;HPM_P1;HPM_P2
2023/08/08 00:01:54;;;;;;;6.10;3.53;;;;;;;19.05;82.23;100827.78;5059915;28;20319;-58
2023/08/08 00:04:25;;;;;;;5.70;3.73;;;;;;;19.35;80.02;100845.00;5071478;28;20293;-58
2023/08/08 00:06:56;;;;;;;43.17;10.40;;;;;;;19.68;78.70;100849.75;5059078;28;20277;-59
2023/08/08 00:09:27;;;;;;;6.17;3.40;;;;;;;19.94;77.34;100842.41;5069442;28;20624;-58
2023/08/08 00:11:58;;;;;;;11.57;3.57;;;;;;;20.19;75.27;100836.81;5059308;28;20277;-59
2023/08/08 00:14:29;;;;;;;9.07;3.90;;;;;;;20.51;77.10;100843.22;5072432;28;20712;-59
2023/08/08 00:17:01;;;;;;;5.87;3.10;;;;;;;20.89;75.12;100837.84;5060771;28;20733;-57
2023/08/08 00:19:32;;;;;;;3.13;2.40;;;;;;;21.32;71.74;100841.00;5069567;28;20302;-59
2023/08/08 00:22:02;;;;;;;4.77;2.77;;;;;;;21.26;69.46;100835.97;5056901;28;20285;-59
2023/08/08 00:24:33;;;;;;;6.13;2.63;;;;;;;21.25;68.47;100828.97;5069810;28;20286;-57
2023/08/08 00:27:04;;;;;;;6.30;2.80;;;;;;;21.44;70.11;100827.09;5059833;28;20282;-58
2023/08/08 00:29:34;;;;;;;7.57;2.63;;;;;;;21.85;69.13;100829.31;5070780;28;20270;-60
2023/08/08 00:32:07;;;;;;;2.07;1.73;;;;;;;21.70;65.36;100830.16;5073955;28;21481;-59
2023/08/08 00:34:38;;;;;;;2.17;1.40;;;;;;;21.67;63.70;100825.03;5092787;28;20289;-59
2023/08/08 00:37:09;;;;;;;5.00;2.10;;;;;;;21.71;66.13;100813.25;5102747;28;20281;-58
2023/08/08 00:39:42;;;;;;;2.30;1.50;;;;;;;21.85;61.61;100813.38;5113620;28;20795;-58
2023/08/08 00:42:12;;;;;;;3.00;1.80;;;;;;;22.08;65.01;100808.56;5114207;28;20292;-59
2023/08/08 00:44:43;;;;;;;4.30;1.90;;;;;;;22.36;64.20;100803.44;5114008;28;20273;-58
2023/08/08 00:47:15;;;;;;;2.40;1.43;;;;;;;22.38;61.16;100801.53;5114605;28;20768;-58
2023/08/08 00:49:48;;;;;;;4.47;1.57;;;;;;;22.28;62.87;100800.34;5114355;28;20316;-58
2023/08/08 00:52:19;;;;;;;2.90;1.50;;;;;;;22.25;64.48;100795.22;5113787;28;20274;-58
2023/08/08 00:54:49;;;;;;;5.50;1.77;;;;;;;22.17;61.95;100802.75;5113707;28;20493;-58
2023/08/08 00:57:20;;;;;;;2.40;1.40;;;;;;;21.97;61.60;100804.72;5114363;28;20280;-58
2023/08/08 00:59:51;;;;;;;3.13;1.53;;;;;;;21.75;62.40;100807.69;5105925;28;20036;-58
2023/08/08 01:02:23;;;;;;;2.23;1.70;;;;;;;21.65;64.09;100805.63;5081453;28;20615;-57
2023/08/08 01:04:54;;;;;;;3.27;2.10;;;;;;;21.74;64.13;100807.75;5072790;28;20530;-58
2023/08/08 01:07:43;;;;;;;3.23;1.63;;;;;;;21.81;63.31;100806.47;5084179;28;20097;-56
2023/08/08 01:10:17;;;;;;;4.40;1.60;;;;;;;21.97;62.82;100796.72;5073440;28;20545;-56
2023/08/08 01:12:51;;;;;;;7.03;2.60;;;;;;;22.19;62.80;100816.84;5084565;28;20143;-56
2023/08/08 01:15:23;;;;;;;3.20;1.80;;;;;;;22.23;60.90;100799.75;5073534;28;20101;-57
2023/08/08 01:17:56;;;;;;;3.67;1.70;;;;;;;22.17;61.03;100797.44;5072758;28;20075;-56
2023/08/08 01:20:27;;;;;;;7.63;1.83;;;;;;;22.10;60.13;100799.56;5083891;28;20435;-57
2023/08/08 01:23:05;;;;;;;2.60;1.30;;;;;;;21.90;60.15;100763.44;5073095;28;20147;-58
2023/08/08 01:28:27;;;;;;;8.47;3.03;;;;;;;21.87;60.88;100800.84;5052751;28;20036;-56
2023/08/08 01:30:58;;;;;;;1.67;1.40;;;;;;;21.78;60.64;100801.34;5052932;28;20359;-57
2023/08/08 01:33:28;;;;;;;6.33;1.90;;;;;;;21.69;61.08;100807.16;5065547;28;20046;-57
2023/08/08 01:36:03;;;;;;;2.33;1.30;;;;;;;21.43;61.43;100804.09;5064837;28;20040;-57
2023/08/08 01:38:38;;;;;;;3.03;1.87;;;;;;;21.27;62.29;100795.19;5087456;28;20071;-58
2023/08/08 01:41:11;;;;;;;3.10;1.37;;;;;;;21.08;63.44;100758.94;5076737;28;20497;-58
2023/08/08 01:43:42;;;;;;;2.83;1.40;;;;;;;21.15;63.21;100780.75;5088151;28;20161;-58
2023/08/08 01:46:13;;;;;;;2.60;1.50;;;;;;;21.13;63.83;100776.44;5076382;28;20477;-56
2023/08/08 01:48:48;;;;;;;1.97;1.47;;;;;;;21.16;62.80;100770.97;5087153;28;20365;-56
2023/08/08 01:51:18;;;;;;;4.30;2.07;;;;;;;21.22;65.24;100781.28;5076189;28;20039;-59
2023/08/08 01:53:49;;;;;;;2.90;1.70;;;;;;;21.47;65.41;100770.25;5086852;28;20297;-56
2023/08/08 01:56:21;;;;;;;3.33;1.80;;;;;;;21.46;62.80;100769.38;5076352;28;20059;-56
2023/08/08 01:58:52;;;;;;;2.30;1.50;;;;;;;21.46;62.18;100780.00;5080421;28;20096;-59
2023/08/08 02:01:22;;;;;;;2.73;1.53;;;;;;;21.63;62.03;100791.53;5086769;28;20335;-57
2023/08/08 02:03:53;;;;;;;3.10;1.43;;;;;;;21.90;61.09;100808.66;5076218;28;20278;-58
2023/08/08 02:06:24;;;;;;;2.57;1.50;;;;;;;22.23;63.11;100809.56;5086753;28;20816;-56
2023/08/08 02:08:55;;;;;;;2.60;1.53;;;;;;;22.25;61.25;100760.59;5075828;28;20317;-57
2023/08/08 02:11:27;;;;;;;2.60;1.60;;;;;;;22.59;60.16;100785.31;5086666;28;20118;-56
2023/08/08 02:13:57;;;;;;;2.60;1.53;;;;;;;22.68;59.54;100792.72;5064552;28;20072;-57
2023/08/08 02:16:28;;;;;;;2.47;1.40;;;;;;;22.97;60.36;100798.16;5066254;28;20055;-57
2023/08/08 02:18:59;;;;;;;2.70;1.50;;;;;;;23.15;58.56;100797.06;5055681;28;20097;-57
2023/08/08 02:21:29;;;;;;;2.63;1.30;;;;;;;23.17;56.23;100795.19;5077624;28;20043;-57
2023/08/08 02:24:00;;;;;;;2.30;1.20;;;;;;;23.04;56.18;100794.22;5076083;28;20187;-56
2023/08/08 02:26:32;;;;;;;2.63;1.20;;;;;;;23.04;56.40;100799.56;5086449;28;20051;-57
2023/08/08 02:29:03;;;;;;;2.50;1.37;;;;;;;23.32;56.68;100801.41;5077035;28;20362;-57
2023/08/08 02:31:33;;;;;;;2.63;1.20;;;;;;;23.48;57.18;100798.63;5086967;28;20047;-57
2023/08/08 02:34:04;;;;;;;3.63;1.40;;;;;;;23.53;55.16;100796.53;5076275;28;20419;-57
2023/08/08 02:36:34;;;;;;;1.73;1.10;;;;;;;23.33;55.57;100791.59;5086000;28;20047;-56
2023/08/08 02:39:05;;;;;;;3.40;1.00;;;;;;;23.08;54.42;100801.06;5075323;28;20069;-58
2023/08/08 02:41:37;;;;;;;2.13;1.07;;;;;;;22.81;55.84;100793.75;5085909;28;20032;-57
2023/08/08 02:44:09;;;;;;;2.33;1.20;;;;;;;22.75;58.29;100782.59;5074800;28;20462;-57
2023/08/08 02:46:39;;;;;;;2.83;1.00;;;;;;;23.04;58.68;100810.22;5086356;28;20079;-56
2023/08/08 02:49:10;;;;;;;1.30;0.80;;;;;;;23.03;56.31;100808.47;5075969;28;20053;-58
2023/08/08 02:51:40;;;;;;;1.73;0.97;;;;;;;23.00;55.90;100798.00;5085960;28;20070;-57
2023/08/08 02:54:11;;;;;;;1.27;0.90;;;;;;;22.90;56.69;100796.81;5088108;28;20047;-59
2023/08/08 02:56:43;;;;;;;1.70;1.10;;;;;;;22.93;55.27;100812.59;5115422;28;20100;-60
2023/08/08 02:59:13;;;;;;;2.20;1.20;;;;;;;22.86;55.27;100821.91;5080200;28;20105;-59
2023/08/08 03:01:45;;;;;;;1.90;1.10;;;;;;;22.72;55.06;100820.06;5074120;28;20099;-58
2023/08/08 03:08:17;;;;;;;2.23;1.10;;;;;;;22.54;55.90;100811.31;5059993;28;20058;-59
2023/08/08 03:10:48;;;;;;;2.43;1.40;;;;;;;22.37;56.58;100815.81;5072155;28;20131;-59
2023/08/08 03:13:22;;;;;;;1.97;1.20;;;;;;;22.17;55.92;100792.09;5078655;28;20078;-60
2023/08/08 03:15:52;;;;;;;2.10;1.40;;;;;;;22.24;57.40;100830.78;5095147;28;20052;-60
2023/08/08 03:18:24;;;;;;;2.27;1.10;;;;;;;22.08;56.35;100835.19;5094079;28;20374;-61
2023/08/08 03:20:55;;;;;;;1.70;1.20;;;;;;;22.04;58.09;100828.31;5102089;28;20071;-60
2023/08/08 03:23:25;;;;;;;1.97;1.13;;;;;;;21.95;56.41;100825.22;5096540;28;20524;-60
2023/08/08 03:25:56;;;;;;;1.50;1.00;;;;;;;21.87;56.31;100830.09;5072812;28;20462;-59
2023/08/08 03:28:28;;;;;;;2.80;1.13;;;;;;;21.85;57.05;100818.69;5084903;28;20065;-60
2023/08/08 03:30:59;;;;;;;2.00;1.17;;;;;;;21.75;56.64;100813.00;5067567;28;20043;-60
2023/08/08 03:33:29;;;;;;;1.87;1.20;;;;;;;21.63;57.65;100813.66;5073416;28;20055;-59
2023/08/08 03:36:00;;;;;;;3.27;1.40;;;;;;;21.54;58.94;100809.72;5062244;28;20100;-60
2023/08/08 03:38:31;;;;;;;2.93;1.20;;;;;;;21.46;58.63;100798.59;5086533;28;20435;-60
2023/08/08 03:41:01;;;;;;;3.03;1.30;;;;;;;21.33;60.38;100805.50;5094990;28;20081;-60
2023/08/08 03:43:34;;;;;;;1.70;1.30;;;;;;;21.31;59.83;100802.03;5098287;28;20112;-60
2023/08/08 03:46:04;;;;;;;1.87;1.30;;;;;;;21.27;58.32;100796.03;5094032;28;20120;-61
2023/08/08 03:48:35;;;;;;;2.03;1.40;;;;;;;21.07;59.73;100789.13;5094793;28;20374;-60
2023/08/08 03:51:05;;;;;;;3.87;1.70;;;;;;;20.85;60.72;100789.34;5101217;28;20094;-60
2023/08/08 03:53:36;;;;;;;2.40;1.47;;;;;;;20.67;61.28;100780.53;5094068;28;20266;-61
2023/08/08 03:56:07;;;;;;;2.00;1.40;;;;;;;20.54;61.82;100778.50;5073746;28;20776;-60
2023/08/08 03:58:40;;;;;;;1.80;1.40;;;;;;;20.46;62.62;100781.53;5070766;28;21003;-60
2023/08/08 04:01:11;;;;;;;2.87;1.53;;;;;;;20.48;64.20;100785.00;5060822;28;20303;-60
2023/08/08 04:03:42;;;;;;;2.83;1.63;;;;;;;20.39;63.30;100782.78;5072414;28;20298;-58
2023/08/08 04:06:13;;;;;;;3.00;1.70;;;;;;;20.29;62.70;100773.53;5102979;28;20270;-61
2023/08/08 04:08:43;;;;;;;2.73;1.57;;;;;;;20.20;63.41;100781.03;5080689;28;20281;-60
2023/08/08 04:11:14;;;;;;;3.47;2.13;;;;;;;20.19;63.96;100768.72;5062457;28;20286;-60
2023/08/08 04:13:46;;;;;;;3.07;1.90;;;;;;;20.14;64.81;100760.09;5072817;28;20312;-60
2023/08/08 04:16:16;;;;;;;4.17;2.10;;;;;;;20.14;64.04;100760.09;5072729;28;20381;-61
2023/08/08 04:18:48;;;;;;;4.57;1.77;;;;;;;19.85;64.58;100726.16;5104856;28;20277;-60
2023/08/08 04:21:18;;;;;;;2.87;1.67;;;;;;;20.00;64.19;100759.91;5099812;28;20277;-60
2023/08/08 04:23:49;;;;;;;3.17;1.70;;;;;;;19.89;64.20;100749.78;5068285;28;20607;-61
2023/08/08 04:26:19;;;;;;;2.97;1.60;;;;;;;19.82;64.11;100749.25;5059062;28;20281;-60
2023/08/08 04:28:52;;;;;;;4.43;1.80;;;;;;;19.76;65.24;100754.81;5070336;28;20289;-59
2023/08/08 04:31:24;;;;;;;6.13;1.80;;;;;;;19.68;65.63;100751.66;5068773;28;20373;-60
2023/08/08 04:33:59;;;;;;;2.70;1.63;;;;;;;19.65;66.09;100757.09;5058638;28;20292;-60
2023/08/08 04:36:31;;;;;;;3.30;1.93;;;;;;;19.58;64.91;100740.59;5069056;28;20304;-60
2023/08/08 04:39:02;;;;;;;1.93;1.60;;;;;;;19.58;65.28;100734.44;5059292;28;20289;-60
2023/08/08 04:41:32;;;;;;;5.07;1.80;;;;;;;19.55;65.02;100729.28;5071212;28;20612;-59
2023/08/08 04:44:04;;;;;;;3.33;1.70;;;;;;;19.56;65.09;100736.28;5060130;28;20286;-61
2023/08/08 04:46:35;;;;;;;3.17;1.40;;;;;;;19.60;65.90;100737.88;5070571;28;20420;-61
2023/08/08 04:49:08;;;;;;;4.47;1.53;;;;;;;19.63;65.45;100729.78;5057873;28;20677;-63
2023/08/08 04:51:39;;;;;;;3.17;1.60;;;;;;;19.70;65.42;100733.91;5070056;28;20628;-60
2023/08/08 04:54:09;;;;;;;3.27;1.67;;;;;;;19.76;66.45;100720.34;5060493;28;20312;-59
2023/08/08 04:56:41;;;;;;;3.17;1.90;;;;;;;19.76;65.58;100722.13;5070519;28;20289;-59
2023/08/08 04:59:13;;;;;;;5.03;2.53;;;;;;;19.76;66.78;100719.50;5059324;28;20280;-60
2023/08/08 05:01:43;;;;;;;4.87;1.97;;;;;;;19.79;67.75;100712.28;5071538;28;20312;-58
2023/08/08 05:04:14;;;;;;;1.87;1.60;;;;;;;19.86;67.28;100709.31;5060764;28;20708;-60
2023/08/08 05:06:46;;;;;;;2.40;1.80;;;;;;;19.87;66.89;100711.91;5069104;28;20385;-59
2023/08/08 05:09:16;;;;;;;4.03;2.07;;;;;;;19.85;66.97;100710.25;5062718;28;21606;-59
2023/08/08 05:11:47;;;;;;;3.70;2.00;;;;;;;19.94;67.22;100717.75;5074199;28;20277;-60
2023/08/08 05:14:19;;;;;;;3.57;2.20;;;;;;;20.05;67.66;100723.41;5061279;28;20310;-62
2023/08/08 05:16:50;;;;;;;6.13;2.33;;;;;;;20.08;67.61;100727.69;5074458;28;21010;-59
2023/08/08 05:19:20;;;;;;;6.30;2.03;;;;;;;20.13;67.29;100723.88;5072870;28;20292;-59
2023/08/08 05:21:51;;;;;;;5.37;2.20;;;;;;;20.17;66.30;100728.13;5064222;28;20368;-59
2023/08/08 05:24:22;;;;;;;5.60;2.20;;;;;;;20.21;65.31;100739.44;5075194;28;20286;-60
2023/08/08 05:26:53;;;;;;;4.47;2.20;;;;;;;20.28;65.61;100740.00;5062774;28;20313;-59
2023/08/08 05:29:25;;;;;;;6.23;2.40;;;;;;;20.30;65.97;100738.13;5074108;28;20369;-60
2023/08/08 05:31:55;;;;;;;6.27;1.90;;;;;;;20.24;65.18;100734.84;5062665;28;20278;-60
2023/08/08 05:34:27;;;;;;;5.67;2.57;;;;;;;20.20;65.96;100735.91;5073618;28;20348;-60
2023/08/08 05:36:57;;;;;;;3.47;1.90;;;;;;;20.16;65.74;100726.38;5062260;28;20380;-61
2023/08/08 05:39:44;;;;;;;4.97;2.27;;;;;;;20.16;65.37;100742.31;5073765;28;20277;-59
2023/08/08 05:42:15;;;;;;;6.90;2.13;;;;;;;20.20;65.10;100727.97;5063597;28;20321;-60
2023/08/08 05:44:47;;;;;;;5.47;2.30;;;;;;;20.09;64.95;100724.97;5073143;28;20634;-59
2023/08/08 05:47:18;;;;;;;4.37;2.13;;;;;;;20.15;64.69;100729.97;5061867;28;20616;-58
2023/08/08 05:49:48;;;;;;;4.47;2.50;;;;;;;20.19;64.46;100735.97;5074019;28;20309;-60
2023/08/08 05:52:19;;;;;;;4.60;2.03;;;;;;;20.15;64.27;100740.59;5060945;28;20755;-60
2023/08/08 05:54:50;;;;;;;3.80;2.00;;;;;;;20.12;64.58;100735.44;5071270;28;20285;-60
2023/08/08 05:57:21;;;;;;;5.50;2.20;;;;;;;20.05;64.87;100739.31;5061407;28;20273;-59
2023/08/08 05:59:53;;;;;;;5.10;2.00;;;;;;;19.99;65.25;100744.91;5063121;28;20292;-59
2023/08/08 06:02:24;;;;;;;3.47;2.10;;;;;;;19.98;65.17;100743.19;5071758;28;20306;-59
2023/08/08 06:04:54;;;;;;;3.87;2.00;;;;;;;19.96;65.48;100745.06;5061948;28;20288;-60
2023/08/08 06:07:25;;;;;;;4.83;2.00;;;;;;;19.88;65.64;100747.22;5072176;28;20394;-60
2023/08/08 06:09:55;;;;;;;4.17;2.17;;;;;;;19.92;67.19;100748.78;5061406;28;20311;-60
2023/08/08 06:12:26;;;;;;;3.77;2.07;;;;;;;19.93;66.48;100750.53;5072904;28;20573;-60
2023/08/08 06:14:58;;;;;;;4.00;2.10;;;;;;;19.90;65.75;100748.88;5061904;28;20285;-58
2023/08/08 06:17:30;;;;;;;3.33;2.03;;;;;;;19.83;66.42;100745.63;5072192;28;20288;-59
2023/08/08 06:20:04;;;;;;;4.27;2.17;;;;;;;19.76;66.19;100744.22;5062771;28;20285;-59
2023/08/08 06:22:34;;;;;;;6.53;2.53;;;;;;;19.76;65.87;100733.59;5073950;28;20304;-61
2023/08/08 06:25:06;;;;;;;3.47;2.40;;;;;;;19.74;66.42;100740.75;5062634;28;20273;-60
2023/08/08 06:27:36;;;;;;;2.90;2.00;;;;;;;19.77;67.51;100745.94;5072782;28;20319;-59
2023/08/08 06:30:10;;;;;;;5.03;2.87;;;;;;;19.74;67.97;100751.38;5060321;28;20593;-59
2023/08/08 06:32:40;;;;;;;4.10;2.37;;;;;;;19.73;68.33;100739.06;5072351;28;20890;-60
2023/08/08 06:35:13;;;;;;;5.37;2.87;;;;;;;19.70;72.73;100747.16;5061264;28;20681;-60
2023/08/08 06:37:43;;;;;;;5.97;2.80;;;;;;;19.78;73.52;100747.66;5071017;28;20339;-60
2023/08/08 06:40:14;;;;;;;5.30;3.03;;;;;;;19.77;71.29;100756.56;5061394;28;20480;-59
2023/08/08 06:42:45;;;;;;;6.73;3.20;;;;;;;19.72;67.36;100745.31;5071944;28;20818;-57
2023/08/08 06:45:18;;;;;;;7.63;2.63;;;;;;;19.54;70.16;100748.75;5061320;28;20285;-60
2023/08/08 06:47:50;;;;;;;5.00;3.07;;;;;;;19.27;68.97;100746.44;5071289;28;20361;-61
2023/08/08 06:50:25;;;;;;;6.60;3.07;;;;;;;19.09;73.43;100741.94;5057178;28;20278;-58
2023/08/08 06:52:56;;;;;;;4.40;3.47;;;;;;;18.83;71.76;100746.59;5061253;28;20278;-59
2023/08/08 06:55:27;;;;;;;8.00;3.87;;;;;;;18.66;71.64;100749.91;5072796;28;20359;-58
2023/08/08 06:57:58;;;;;;;7.67;3.53;;;;;;;18.73;73.00;100750.53;5061791;28;20748;-58
2023/08/08 07:00:32;;;;;;;8.27;4.30;;;;;;;18.85;73.16;100744.75;5070319;28;20417;-59
2023/08/08 07:03:06;;;;;;;6.93;3.77;;;;;;;18.99;73.78;100761.81;5059582;28;20334;-59
2023/08/08 07:05:39;;;;;;;6.43;4.67;;;;;;;18.87;71.43;100764.09;5071173;28;20277;-60
2023/08/08 07:08:10;;;;;;;9.23;4.83;;;;;;;18.78;71.76;100761.81;5060493;28;20334;-59
2023/08/08 07:10:42;;;;;;;10.17;4.77;;;;;;;18.60;72.17;100765.22;5071175;28;20284;-60
2023/08/08 07:13:13;;;;;;;9.30;4.77;;;;;;;18.62;73.82;100768.63;5095808;28;20377;-61
2023/08/08 07:15:50;;;;;;;7.03;4.67;;;;;;;18.60;73.26;100760.78;5075231;28;20708;-58
2023/08/08 07:18:23;;;;;;;6.37;4.60;;;;;;;18.57;72.66;100765.31;5059086;28;20273;-59
2023/08/08 07:20:58;;;;;;;5.27;4.43;;;;;;;18.52;72.98;100779.63;5062707;28;20339;-59
2023/08/08 07:23:30;;;;;;;5.87;4.60;;;;;;;18.47;73.27;100776.31;5089834;28;20284;-60
2023/08/08 07:26:01;;;;;;;6.50;4.50;;;;;;;18.45;73.65;100775.50;5098479;28;20281;-60
2023/08/08 07:28:34;;;;;;;7.57;4.90;;;;;;;18.43;73.86;100774.69;5115671;28;20278;-59
2023/08/08 07:31:06;;;;;;;10.63;4.83;;;;;;;18.40;74.18;100774.84;5114657;28;20332;-59
2023/08/08 07:33:37;;;;;;;8.23;4.70;;;;;;;18.33;74.90;100778.66;5112740;28;20277;-60
2023/08/08 07:36:10;;;;;;;5.77;4.50;;;;;;;18.39;76.43;100777.53;5074552;28;20329;-58
2023/08/08 07:38:41;;;;;;;4.33;3.10;;;;;;;18.32;78.44;100768.97;5085100;28;20281;-59
2023/08/08 07:41:12;;;;;;;8.43;2.97;;;;;;;18.22;82.28;100780.84;5074242;28;20272;-59
2023/08/08 07:43:45;;;;;;;9.73;3.23;;;;;;;18.12;84.88;100790.91;5085682;28;20281;-57
2023/08/08 07:46:18;;;;;;;9.67;3.07;;;;;;;18.06;86.55;100784.09;5056592;28;20273;-58
2023/08/08 07:48:49;;;;;;;8.47;3.13;;;;;;;18.14;87.53;100788.22;5084791;28;20274;-58
2023/08/08 07:51:23;;;;;;;5.73;3.00;;;;;;;18.20;87.73;100803.88;5073453;28;20281;-56
2023/08/08 07:53:56;;;;;;;5.97;3.10;;;;;;;18.11;87.97;100782.13;5074149;28;20771;-58
2023/08/08 07:56:27;;;;;;;6.73;3.00;;;;;;;18.03;89.50;100786.88;5084299;28;20286;-56
2023/08/08 07:58:59;;;;;;;7.00;3.20;;;;;;;17.48;90.49;100720.25;5074865;28;20307;-58
2023/08/08 08:01:35;;;;;;;6.10;3.33;;;;;;;17.87;92.17;100796.31;5085150;28;20297;-57
2023/08/08 08:04:07;;;;;;;6.03;3.10;;;;;;;17.66;93.46;100788.22;5074283;28;20328;-58
2023/08/08 08:06:42;;;;;;;5.77;3.20;;;;;;;17.48;93.87;100794.22;5084783;28;20274;-57
2023/08/08 08:09:14;;;;;;;7.33;3.73;;;;;;;17.38;95.41;100798.97;5057494;28;20274;-59
2023/08/08 08:11:45;;;;;;;12.40;4.00;;;;;;;17.30;96.22;100792.22;5084949;28;21039;-57
2023/08/08 08:14:17;;;;;;;7.50;3.27;;;;;;;17.23;97.58;100792.44;5073826;28;20285;-58
2023/08/08 08:16:50;;;;;;;5.53;3.37;;;;;;;17.10;98.86;100772.69;5084898;28;20277;-58
2023/08/08 08:19:22;;;;;;;7.87;3.03;;;;;;;17.15;99.08;100781.31;5073680;28;20607;-58
2023/08/08 08:21:53;;;;;;;5.87;3.37;;;;;;;17.31;99.55;100778.09;5073831;28;20289;-57
2023/08/08 08:24:28;;;;;;;7.33;4.47;;;;;;;17.39;99.15;100783.97;5066460;28;20727;-58
2023/08/08 08:27:00;;;;;;;7.80;3.60;;;;;;;17.33;98.71;100789.50;5073602;28;20775;-58
2023/08/08 08:29:32;;;;;;;7.53;3.90;;;;;;;17.30;99.11;100784.28;5084695;28;20351;-57
2023/08/08 08:32:08;;;;;;;6.00;3.30;;;;;;;17.24;98.79;100767.75;5055925;28;20297;-57
2023/08/08 08:34:40;;;;;;;7.83;3.70;;;;;;;17.21;99.33;100785.50;5066887;28;20344;-58
2023/08/08 08:37:12;;;;;;;5.47;3.47;;;;;;;17.15;99.81;100783.94;5073189;28;20374;-57
2023/08/08 08:39:45;;;;;;;7.27;3.43;;;;;;;17.15;100.00;100783.94;5084217;28;20280;-57
2023/08/08 08:42:16;;;;;;;7.03;3.37;;;;;;;17.08;100.00;100771.88;5040036;28;20281;-56
2023/08/08 08:44:52;;;;;;;7.80;3.50;;;;;;;16.93;100.00;100775.91;5088657;28;20315;-57
2023/08/08 08:47:27;;;;;;;7.77;4.20;;;;;;;16.93;100.00;100777.69;5077705;28;20631;-58
2023/08/08 08:49:58;;;;;;;8.00;3.73;;;;;;;16.83;100.00;100784.19;5077611;28;20281;-56
2023/08/08 08:52:30;;;;;;;7.43;4.07;;;;;;;16.73;100.00;100778.34;5073570;28;20290;-57
2023/08/08 08:55:02;;;;;;;10.13;4.27;;;;;;;16.69;100.00;100790.75;5066864;28;20393;-57
2023/08/08 08:57:34;;;;;;;6.80;4.23;;;;;;;16.69;100.00;100798.66;5072448;28;20756;-56
2023/08/08 09:00:13;;;;;;;8.07;4.33;;;;;;;16.70;100.00;100784.56;5058770;28;20705;-58
2023/08/08 09:02:51;;;;;;;8.17;4.50;;;;;;;16.24;100.00;100706.94;5068595;28;20321;-57
2023/08/08 09:05:27;;;;;;;5.57;4.27;;;;;;;16.60;100.00;100777.88;5062824;28;20278;-59
2023/08/08 09:08:01;;;;;;;7.63;4.93;;;;;;;16.56;100.00;100776.25;5004164;28;20273;-58
2023/08/08 09:10:35;;;;;;;7.13;4.90;;;;;;;16.49;100.00;100764.16;5117866;28;20281;-58
2023/08/08 09:13:47;;;;;;;13.97;5.30;;;;;;;16.38;100.00;100765.38;5100239;28;20388;-58
2023/08/08 09:16:24;;;;;;;10.27;5.10;;;;;;;16.39;100.00;100780.28;5060282;28;20284;-58
2023/08/08 09:19:01;;;;;;;10.87;5.50;;;;;;;16.43;100.00;100780.22;5085452;28;20339;-57
2023/08/08 09:21:35;;;;;;;9.03;5.00;;;;;;;16.41;100.00;100776.75;5078448;28;20274;-58
2023/08/08 09:24:11;;;;;;;12.47;5.50;;;;;;;16.43;100.00;100769.66;5068292;28;20372;-59
2023/08/08 09:27:09;;;;;;;10.70;5.00;;;;;;;16.50;100.00;100766.78;5103413;28;20281;-58
2023/08/08 09:30:10;;;;;;;7.20;5.27;;;;;;;16.46;100.00;100770.41;5081844;28;20278;-59
2023/08/08 09:32:57;;;;;;;8.70;5.40;;;;;;;16.51;100.00;100788.72;5089737;28;20285;-59
2023/08/08 09:35:53;;;;;;;11.53;6.00;;;;;;;16.43;100.00;100774.94;5081874;28;20314;-58
2023/08/08 09:38:35;;;;;;;12.40;6.23;;;;;;;16.32;100.00;100777.91;5075402;28;20267;-58
2023/08/08 09:41:10;;;;;;;15.20;6.20;;;;;;;16.28;100.00;100777.16;5065927;28;20288;-59
2023/08/08 09:43:46;;;;;;;12.53;6.60;;;;;;;16.23;100.00;100772.94;5096258;28;20599;-59
2023/08/08 09:46:22;;;;;;;11.40;6.47;;;;;;;16.25;100.00;100771.97;5084518;28;20269;-58
2023/08/08 09:48:56;;;;;;;14.47;6.63;;;;;;;16.16;100.00;100756.44;5083818;28;20294;-58
2023/08/08 09:51:29;;;;;;;9.77;6.10;;;;;;;16.30;100.00;100775.31;5085563;28;20302;-60
2023/08/08 09:54:03;;;;;;;11.97;7.20;;;;;;;16.34;100.00;100776.94;5096675;28;20274;-60
2023/08/08 09:56:35;;;;;;;11.03;6.20;;;;;;;16.40;100.00;100778.53;5096160;28;20278;-60
2023/08/08 09:59:08;;;;;;;10.93;6.80;;;;;;;16.43;100.00;100774.94;5096705;28;20655;-60
2023/08/08 10:01:45;;;;;;;11.63;6.27;;;;;;;16.38;100.00;100778.56;5089960;28;20281;-60
2023/08/08 10:04:18;;;;;;;13.50;6.57;;;;;;;16.36;100.00;100783.03;5083209;28;20277;-59
2023/08/08 10:06:52;;;;;;;9.53;6.47;;;;;;;16.33;100.00;100784.91;5095007;28;20417;-60
2023/08/08 10:09:24;;;;;;;10.77;6.83;;;;;;;16.29;100.00;100778.00;5084113;28;20573;-61
2023/08/08 10:11:58;;;;;;;9.77;6.90;;;;;;;16.17;100.00;100774.84;5104904;28;20280;-60
2023/08/08 10:14:32;;;;;;;12.50;6.87;;;;;;;16.15;100.00;100781.09;5089967;28;20265;-60
2023/08/08 10:17:06;;;;;;;10.97;6.90;;;;;;;16.22;100.00;100797.56;5078057;28;20270;-60
2023/08/08 10:19:39;;;;;;;10.20;6.83;;;;;;;16.20;100.00;100800.25;5085271;28;20328;-59
2023/08/08 10:22:13;;;;;;;10.60;7.40;;;;;;;16.12;100.00;100796.97;5082524;28;20759;-60
2023/08/08 10:24:49;;;;;;;11.53;7.50;;;;;;;16.14;100.00;100795.16;5094933;28;20572;-60
2023/08/08 10:27:33;;;;;;;11.33;7.20;;;;;;;16.10;100.00;100799.69;5084364;28;20323;-60
2023/08/08 10:30:09;;;;;;;12.33;7.10;;;;;;;16.01;100.00;100775.38;5107234;28;20275;-60
2023/08/08 10:32:42;;;;;;;10.83;7.30;;;;;;;15.99;100.00;100785.09;5091255;28;20346;-60
2023/08/08 10:35:14;;;;;;;12.97;7.43;;;;;;;15.95;100.00;100790.47;5060326;28;20278;-59
2023/08/08 10:37:57;;;;;;;12.50;6.83;;;;;;;15.91;100.00;100794.09;5073052;28;20289;-59
2023/08/08 10:40:37;;;;;;;11.87;7.33;;;;;;;15.91;100.00;100794.09;5060684;28;20580;-59
2023/08/08 10:43:14;;;;;;;12.25;7.13;;;;;;;15.91;100.00;100799.34;5059953;28;21242;-57
2023/08/08 10:45:46;;;;;;;13.20;7.17;;;;;;;15.86;100.00;100800.41;5072571;28;20054;-58
2023/08/08 10:48:29;;;;;;;10.57;6.90;;;;;;;15.88;100.00;100804.72;5060761;28;20285;-58
2023/08/08 10:51:01;;;;;;;10.90;7.07;;;;;;;15.65;100.00;100754.44;5060235;28;20373;-58
2023/08/08 10:53:38;;;;;;;14.43;7.40;;;;;;;15.83;100.00;100800.50;5071172;28;21059;-58
2023/08/08 10:56:15;;;;;;;14.67;6.97;;;;;;;15.56;100.00;100774.03;5061458;28;20281;-58
2023/08/08 10:58:55;;;;;;;15.52;7.28;;;;;;;15.72;100.00;100803.44;5072756;28;20302;-58
2023/08/08 11:01:28;;;;;;;10.57;7.60;;;;;;;15.52;100.00;100775.91;5061547;28;20553;-57
2023/08/08 11:04:01;;;;;;;11.07;6.43;;;;;;;15.59;100.00;100802.03;5061369;28;20293;-58
2023/08/08 11:06:34;;;;;;;13.27;7.83;;;;;;;15.50;100.00;100796.13;5071419;28;20320;-57
2023/08/08 11:09:11;;;;;;;11.80;7.37;;;;;;;15.52;100.00;100786.44;5060897;28;20381;-58
2023/08/08 11:11:46;;;;;;;16.00;7.90;;;;;;;15.60;100.00;100798.50;5070328;28;20290;-57
2023/08/08 11:14:22;;;;;;;11.30;6.30;;;;;;;15.40;100.00;100755.19;5059988;28;20297;-56
2023/08/08 11:16:56;;;;;;;11.30;6.30;;;;;;;15.53;100.00;100779.38;5049981;28;20382;-56
2023/08/08 11:19:29;;;;;;;11.37;6.03;;;;;;;15.57;100.00;100794.16;5070916;28;20334;-58
2023/08/08 11:22:02;;;;;;;8.93;5.80;;;;;;;15.54;100.00;100805.66;5059786;28;20632;-58
2023/08/08 11:24:39;;;;;;;11.97;6.53;;;;;;;15.52;100.00;100801.34;5069882;28;20289;-59
2023/08/08 11:27:13;;;;;;;9.63;6.37;;;;;;;15.51;100.00;100800.47;5060195;28;20348;-59
2023/08/08 11:30:06;;;;;;;11.73;6.07;;;;;;;15.45;100.00;100800.69;5059588;28;21233;-58
2023/08/08 11:32:40;;;;;;;12.77;5.87;;;;;;;15.45;100.00;100790.13;5070058;28;20373;-58
2023/08/08 11:35:12;;;;;;;12.33;5.73;;;;;;;15.47;100.00;100793.56;5060960;28;20307;-58
2023/08/08 11:37:46;;;;;;;8.07;6.00;;;;;;;15.43;100.00;100786.69;5072512;28;20294;-59
2023/08/08 11:40:26;;;;;;;14.27;5.97;;;;;;;15.43;100.00;100797.22;5059545;28;20304;-58
2023/08/08 11:42:59;;;;;;;13.57;5.90;;;;;;;15.41;100.00;100793.75;5058871;28;20317;-58
2023/08/08 11:45:31;;;;;;;13.50;5.87;;;;;;;15.37;100.00;100796.50;5069664;28;20598;-58
2023/08/08 11:48:03;;;;;;;13.20;6.40;;;;;;;15.35;100.00;100793.94;5058525;28;20693;-58
2023/08/08 11:50:38;;;;;;;9.73;6.00;;;;;;;15.35;100.00;100793.94;5070012;28;20831;-58
2023/08/08 11:53:15;;;;;;;10.07;6.17;;;;;;;15.36;100.00;100787.75;5059849;28;20701;-58
2023/08/08 11:55:49;;;;;;;10.20;5.40;;;;;;;15.39;100.00;100794.69;5070958;28;20724;-58